Time,TemperatureF,DewpointF,PressureIn,WindDirection,WindDirectionDegrees,WindSpeedMPH,WindSpeedGustMPH,Humidity,HourlyPrecipIn,Conditions,Clouds,dailyrainin,SolarRadiationWatts/m^2,SoftwareType,DateUTC
2013-02-22 00:06:00,32.9,32.0,29.94,East,92,0.0,-999.0,95,-99.99,,,0.00,0,weatherlink.com 1.10,2013-02-22 06:06:00,
2013-02-22 00:21:00,32.8,32.0,29.93,East,92,0.0,-999.0,95,-99.99,,,0.00,0,weatherlink.com 1.10,2013-02-22 06:21:00,
2013-02-22 00:36:00,32.9,32.0,29.94,East,92,0.0,-999.0,95,-99.99,,,0.00,0,weatherlink.com 1.10,2013-02-22 06:36:00,
2013-02-22 00:51:00,33.1,32.0,29.94,East,92,0.0,-999.0,95,-99.99,,,0.00,0,weatherlink.com 1.10,2013-02-22 06:51:00,
2013-02-22 01:06:00,33.1,32.0,29.96,East,92,0.0,-999.0,95,-99.99,,,0.00,0,weatherlink.com 1.10,2013-02-22 07:06:00,
2013-02-22 01:21:00,33.3,32.0,29.96,East,92,0.0,-999.0,95,-99.99,,,0.00,0,weatherlink.com 1.10,2013-02-22 07:21:00,
2013-02-22 01:36:00,33.5,32.0,29.96,East,92,0.0,-999.0,94,-99.99,,,0.00,0,weatherlink.com 1.10,2013-02-22 07:36:00,
2013-02-22 01:51:00,33.6,32.0,29.96,East,92,0.0,-999.0,95,-99.99,,,0.00,0,weatherlink.com 1.10,2013-02-22 07:51:00,
2013-02-22 02:06:00,33.7,32.0,29.96,East,92,0.0,-999.0,94,-99.99,,,0.00,0,weatherlink.com 1.10,2013-02-22 08:06:00,
2013-02-22 02:21:00,33.8,32.0,29.95,East,92,0.0,-999.0,94,-99.99,,,0.00,0,weatherlink.com 1.10,2013-02-22 08:21:00,
2013-02-22 02:36:00,34.0,33.0,29.95,East,92,0.0,-999.0,94,-99.99,,,0.00,0,weatherlink.com 1.10,2013-02-22 08:36:00,
2013-02-22 02:51:00,34.0,33.0,29.95,East,92,0.0,-999.0,94,-99.99,,,0.00,0,weatherlink.com 1.10,2013-02-22 08:51:00,
2013-02-22 03:06:00,33.8,33.0,29.95,East,92,0.0,-999.0,95,-99.99,,,0.00,0,weatherlink.com 1.10,2013-02-22 09:06:00,
2013-02-22 03:21:00,33.9,32.0,29.95,East,92,0.0,-999.0,94,-99.99,,,0.00,0,weatherlink.com 1.10,2013-02-22 09:21:00,
2013-02-22 03:36:00,34.2,33.0,29.96,East,92,0.0,-999.0,94,-99.99,,,0.00,0,weatherlink.com 1.10,2013-02-22 09:36:00,
2013-02-22 03:51:00,34.4,33.0,29.96,East,92,0.0,-999.0,94,-99.99,,,0.00,0,weatherlink.com 1.10,2013-02-22 09:51:00,
2013-02-22 04:06:00,34.4,33.0,29.97,East,92,0.0,-999.0,94,-99.99,,,0.00,0,weatherlink.com 1.10,2013-02-22 10:06:00,
2013-02-22 04:21:00,34.2,33.0,29.98,East,92,0.0,-999.0,94,-99.99,,,0.00,0,weatherlink.com 1.10,2013-02-22 10:21:00,
2013-02-22 04:36:00,34.0,33.0,29.99,East,92,0.0,-999.0,94,-99.99,,,0.00,0,weatherlink.com 1.10,2013-02-22 10:36:00,
2013-02-22 04:51:00,34.0,33.0,29.99,East,92,0.0,-999.0,94,-99.99,,,0.00,0,weatherlink.com 1.10,2013-02-22 10:51:00,
2013-02-22 05:06:00,33.9,32.0,30.00,East,92,0.0,-999.0,93,-99.99,,,0.00,0,weatherlink.com 1.10,2013-02-22 11:06:00,
2013-02-22 05:21:00,33.7,32.0,30.00,East,92,0.0,-999.0,93,-99.99,,,0.00,0,weatherlink.com 1.10,2013-02-22 11:21:00,
2013-02-22 05:36:00,33.8,32.0,30.01,East,92,0.0,-999.0,94,-99.99,,,0.00,0,weatherlink.com 1.10,2013-02-22 11:36:00,
2013-02-22 05:51:00,33.8,32.0,30.02,East,92,0.0,-999.0,93,-99.99,,,0.00,0,weatherlink.com 1.10,2013-02-22 11:51:00,
2013-02-22 06:06:00,33.6,32.0,30.04,East,92,0.0,-999.0,93,-99.99,,,0.00,0,weatherlink.com 1.10,2013-02-22 12:06:00,
2013-02-22 06:21:00,33.4,32.0,30.06,East,92,0.0,-999.0,93,-99.99,,,0.00,0,weatherlink.com 1.10,2013-02-22 12:21:00,
2013-02-22 06:36:00,33.5,32.0,30.06,East,92,0.0,-999.0,93,-99.99,,,0.00,0,weatherlink.com 1.10,2013-02-22 12:36:00,
2013-02-22 06:52:00,32.5,31.0,30.06,East,92,0.0,-999.0,92,-99.99,,,0.00,0,weatherlink.com 1.10,2013-02-22 12:52:00,
2013-02-22 07:06:00,31.6,29.0,30.07,East,92,0.0,-999.0,90,-99.99,,,0.00,9,weatherlink.com 1.10,2013-02-22 13:06:00,
2013-02-22 07:21:00,30.8,28.0,30.08,East,92,0.0,-999.0,89,-99.99,,,0.00,19,weatherlink.com 1.10,2013-02-22 13:21:00,
2013-02-22 07:36:00,30.6,28.0,30.09,East,92,0.0,-999.0,89,-99.99,,,0.00,63,weatherlink.com 1.10,2013-02-22 13:36:00,
2013-02-22 07:52:00,30.5,28.0,30.09,East,92,0.0,-999.0,89,-99.99,,,0.00,37,weatherlink.com 1.10,2013-02-22 13:52:00,
2013-02-22 08:07:00,30.4,28.0,30.10,East,92,0.0,-999.0,90,-99.99,,,0.00,69,weatherlink.com 1.10,2013-02-22 14:07:00,
2013-02-22 08:22:00,30.5,28.0,30.09,East,92,0.0,-999.0,89,-99.99,,,0.00,67,weatherlink.com 1.10,2013-02-22 14:22:00,
2013-02-22 08:37:00,30.2,27.0,30.10,East,92,0.0,-999.0,89,-99.99,,,0.00,121,weatherlink.com 1.10,2013-02-22 14:37:00,
2013-02-22 08:52:00,30.0,27.0,30.11,East,92,0.0,-999.0,87,-99.99,,,0.00,128,weatherlink.com 1.10,2013-02-22 14:52:00,
2013-02-22 09:07:00,29.8,26.0,30.12,East,92,0.0,-999.0,87,-99.99,,,0.00,355,weatherlink.com 1.10,2013-02-22 15:07:00,
2013-02-22 09:22:00,30.3,27.0,30.13,East,92,0.0,-999.0,87,-99.99,,,0.00,422,weatherlink.com 1.10,2013-02-22 15:22:00,
2013-02-22 09:37:00,30.6,27.0,30.14,East,92,0.0,-999.0,85,-99.99,,,0.00,141,weatherlink.com 1.10,2013-02-22 15:37:00,
2013-02-22 09:52:00,30.5,27.0,30.15,East,92,0.0,-999.0,87,-99.99,,,0.00,450,weatherlink.com 1.10,2013-02-22 15:52:00,
2013-02-22 10:07:00,30.7,27.0,30.16,East,92,0.0,-999.0,85,-99.99,,,0.00,139,weatherlink.com 1.10,2013-02-22 16:07:00,
2013-02-22 10:22:00,30.7,27.0,30.17,East,92,0.0,-999.0,86,-99.99,,,0.00,213,weatherlink.com 1.10,2013-02-22 16:22:00,
2013-02-22 10:37:00,31.1,28.0,30.17,East,92,0.0,-999.0,87,-99.99,,,0.00,526,weatherlink.com 1.10,2013-02-22 16:37:00,
2013-02-22 10:52:00,31.3,28.0,30.17,East,92,0.0,-999.0,86,-99.99,,,0.00,410,weatherlink.com 1.10,2013-02-22 16:52:00,
2013-02-22 11:07:00,31.3,28.0,30.17,East,92,0.0,-999.0,86,-99.99,,,0.00,304,weatherlink.com 1.10,2013-02-22 17:07:00,
2013-02-22 11:22:00,30.7,27.0,30.18,East,92,0.0,-999.0,86,-99.99,,,0.00,378,weatherlink.com 1.10,2013-02-22 17:22:00,
2013-02-22 11:37:00,31.2,28.0,30.18,East,92,0.0,-999.0,87,-99.99,,,0.00,482,weatherlink.com 1.10,2013-02-22 17:37:00,
2013-02-22 11:52:00,31.0,27.0,30.17,East,92,0.0,-999.0,86,-99.99,,,0.00,315,weatherlink.com 1.10,2013-02-22 17:52:00,
2013-02-22 12:07:00,31.4,28.0,30.17,East,92,0.0,-999.0,86,-99.99,,,0.00,374,weatherlink.com 1.10,2013-02-22 18:07:00,
2013-02-22 12:22:00,31.7,28.0,30.16,East,92,0.0,-999.0,86,-99.99,,,0.00,432,weatherlink.com 1.10,2013-02-22 18:22:00,
2013-02-22 12:37:00,32.1,28.0,30.16,East,92,0.0,-999.0,86,-99.99,,,0.00,360,weatherlink.com 1.10,2013-02-22 18:37:00,
2013-02-22 12:52:00,32.4,28.0,30.16,East,92,0.0,-999.0,85,-99.99,,,0.00,323,weatherlink.com 1.10,2013-02-22 18:52:00,
2013-02-22 13:07:00,32.8,29.0,30.16,East,92,0.0,-999.0,85,-99.99,,,0.00,661,weatherlink.com 1.10,2013-02-22 19:07:00,
2013-02-22 13:22:00,33.4,30.0,30.15,East,92,0.0,-999.0,87,-99.99,,,0.00,770,weatherlink.com 1.10,2013-02-22 19:22:00,
2013-02-22 13:37:00,33.3,29.0,30.15,NNW,333,0.0,-999.0,83,-99.99,,,0.00,278,weatherlink.com 1.10,2013-02-22 19:37:00,
2013-02-22 13:52:00,32.9,29.0,30.14,NNW,331,0.0,-999.0,84,-99.99,,,0.00,701,weatherlink.com 1.10,2013-02-22 19:52:00,
2013-02-22 14:07:00,33.4,28.0,30.14,NW,323,0.0,-999.0,81,-99.99,,,0.00,654,weatherlink.com 1.10,2013-02-22 20:07:00,
2013-02-22 14:22:00,34.3,30.0,30.14,NW,315,0.0,-999.0,84,-99.99,,,0.00,679,weatherlink.com 1.10,2013-02-22 20:22:00,
2013-02-22 14:37:00,34.3,29.0,30.14,NW,312,0.0,-999.0,80,-99.99,,,0.00,557,weatherlink.com 1.10,2013-02-22 20:37:00,
2013-02-22 14:52:00,34.6,29.0,30.14,NW,307,0.0,-999.0,79,-99.99,,,0.00,176,weatherlink.com 1.10,2013-02-22 20:52:00,
2013-02-22 15:07:00,34.1,29.0,30.12,WNW,303,0.0,-999.0,81,-99.99,,,0.00,469,weatherlink.com 1.10,2013-02-22 21:07:00,
2013-02-22 15:22:00,34.3,29.0,30.12,NW,306,0.0,-999.0,82,-99.99,,,0.00,438,weatherlink.com 1.10,2013-02-22 21:22:00,
2013-02-22 15:37:00,35.0,29.0,30.12,NW,305,0.0,-999.0,80,-99.99,,,0.00,483,weatherlink.com 1.10,2013-02-22 21:37:00,
2013-02-22 15:52:00,35.4,30.0,30.12,NW,306,0.0,-999.0,79,-99.99,,,0.00,197,weatherlink.com 1.10,2013-02-22 21:52:00,
2013-02-22 16:07:00,35.0,29.0,30.12,NW,305,7.0,-999.0,80,-99.99,,,0.00,345,weatherlink.com 1.10,2013-02-22 22:07:00,
2013-02-22 16:22:00,35.1,30.0,30.12,NW,305,8.0,-999.0,80,-99.99,,,0.00,153,weatherlink.com 1.10,2013-02-22 22:22:00,
2013-02-22 16:37:00,35.1,29.0,30.12,NW,314,5.0,-999.0,79,-99.99,,,0.00,86,weatherlink.com 1.10,2013-02-22 22:37:00,
2013-02-22 16:52:00,35.3,30.0,30.12,NW,314,0.0,-999.0,80,-99.99,,,0.00,120,weatherlink.com 1.10,2013-02-22 22:52:00,
2013-02-22 17:07:00,35.8,29.0,30.12,NW,313,1.0,-999.0,76,-99.99,,,0.00,105,weatherlink.com 1.10,2013-02-22 23:07:00,
2013-02-22 17:22:00,35.6,29.0,30.12,NW,312,6.0,-999.0,77,-99.99,,,0.00,32,weatherlink.com 1.10,2013-02-22 23:22:00,
2013-02-22 17:37:00,35.1,30.0,30.12,NW,313,7.0,-999.0,80,-99.99,,,0.00,19,weatherlink.com 1.10,2013-02-22 23:37:00,
2013-02-22 17:52:00,34.8,29.0,30.13,NW,314,5.0,-999.0,80,-99.99,,,0.00,7,weatherlink.com 1.10,2013-02-22 23:52:00,
2013-02-22 18:07:00,34.7,29.0,30.14,NW,316,4.0,-999.0,80,-99.99,,,0.00,0,weatherlink.com 1.10,2013-02-23 00:07:00,
2013-02-22 18:22:00,34.3,29.0,30.14,NW,317,6.0,-999.0,80,-99.99,,,0.00,0,weatherlink.com 1.10,2013-02-23 00:22:00,
2013-02-22 18:38:00,33.9,29.0,30.14,NW,321,5.0,-999.0,81,-99.99,,,0.00,0,weatherlink.com 1.10,2013-02-23 00:38:00,
2013-02-22 18:53:00,33.5,29.0,30.16,NW,323,7.0,-999.0,82,-99.99,,,0.00,0,weatherlink.com 1.10,2013-02-23 00:53:00,
2013-02-22 19:08:00,33.3,28.0,30.16,NW,317,1.0,-999.0,82,-99.99,,,0.00,0,weatherlink.com 1.10,2013-02-23 01:08:00,
2013-02-22 19:22:00,32.9,28.0,30.17,NW,317,6.0,-999.0,82,-99.99,,,0.00,0,weatherlink.com 1.10,2013-02-23 01:22:00,
2013-02-22 19:37:00,32.5,28.0,30.17,NW,317,0.0,-999.0,83,-99.99,,,0.00,0,weatherlink.com 1.10,2013-02-23 01:37:00,
2013-02-22 19:53:00,32.2,27.0,30.17,NW,317,6.0,-999.0,81,-99.99,,,0.00,0,weatherlink.com 1.10,2013-02-23 01:53:00,
2013-02-22 20:08:00,32.0,27.0,30.17,NW,317,0.0,-999.0,82,-99.99,,,0.00,0,weatherlink.com 1.10,2013-02-23 02:08:00,
2013-02-22 20:23:00,31.7,27.0,30.17,NW,317,4.0,-999.0,83,-99.99,,,0.00,0,weatherlink.com 1.10,2013-02-23 02:23:00,
2013-02-22 20:38:00,31.4,26.0,30.18,NW,319,0.0,-999.0,81,-99.99,,,0.00,0,weatherlink.com 1.10,2013-02-23 02:38:00,
2013-02-22 20:53:00,31.3,26.0,30.18,NW,319,0.0,-999.0,82,-99.99,,,0.00,0,weatherlink.com 1.10,2013-02-23 02:53:00,
2013-02-22 21:08:00,30.9,26.0,30.19,NW,319,1.0,-999.0,82,-99.99,,,0.00,0,weatherlink.com 1.10,2013-02-23 03:08:00,
2013-02-22 21:23:00,30.6,26.0,30.19,NW,319,4.0,-999.0,83,-99.99,,,0.00,0,weatherlink.com 1.10,2013-02-23 03:23:00,
2013-02-22 21:38:00,30.3,26.0,30.18,NW,319,4.0,-999.0,84,-99.99,,,0.00,0,weatherlink.com 1.10,2013-02-23 03:38:00,
2013-02-22 21:53:00,29.8,26.0,30.19,NW,319,0.0,-999.0,85,-99.99,,,0.00,0,weatherlink.com 1.10,2013-02-23 03:53:00,
2013-02-22 22:08:00,29.6,25.0,30.20,NW,319,0.0,-999.0,84,-99.99,,,0.00,0,weatherlink.com 1.10,2013-02-23 04:08:00,
2013-02-22 22:23:00,29.6,25.0,30.19,NW,319,0.0,-999.0,84,-99.99,,,0.00,0,weatherlink.com 1.10,2013-02-23 04:23:00,
2013-02-22 22:38:00,29.8,26.0,30.19,NW,319,0.0,-999.0,85,-99.99,,,0.00,0,weatherlink.com 1.10,2013-02-23 04:38:00,
2013-02-22 22:53:00,29.7,26.0,30.19,NW,319,0.0,-999.0,86,-99.99,,,0.00,0,weatherlink.com 1.10,2013-02-23 04:53:00,
2013-02-22 23:08:00,29.6,26.0,30.18,NW,319,0.0,-999.0,85,-99.99,,,0.00,0,weatherlink.com 1.10,2013-02-23 05:08:00,
2013-02-22 23:23:00,29.2,26.0,30.19,NW,319,0.0,-999.0,86,-99.99,,,0.00,0,weatherlink.com 1.10,2013-02-23 05:23:00,
2013-02-22 23:38:00,29.0,26.0,30.18,NW,319,0.0,-999.0,87,-99.99,,,0.00,0,weatherlink.com 1.10,2013-02-23 05:38:00,
2013-02-22 23:53:00,28.7,26.0,30.18,NW,319,2.0,-999.0,88,-99.99,,,0.00,0,weatherlink.com 1.10,2013-02-23 05:53:00,